Latest Weather Observations for Double Island Point

IDQ60801

Issued at 8:05 pm EST Saturday 25 October 2014 (issued every 30 minutes, with the page automatically refreshed every 10 minutes)

About weather observations | Map of weather stations | Latest weather observations for QLD | Other Formats
Station Details ID: 040068 Name: DOUBLE ISLAND POINT LIGHTHOUSE Lat: -25.93 Lon: 153.19 Height: 95.64 m
Data from the previous 72 hours. | See also: Recent months at Double Island Point
Date/Time
EST
Temp
°C
App
Temp
°C
Dew
Point
Rel
Hum
%
Delta-T
°C
Wind Press
QNH
hPa
Press
MSL
hPa
Rain
since 9 am
mm
Dir
 
Spd
km/h
Gust
km/h
Spd
kts
Gust
kts
25/08:00pm 20.9 18.3 15.9 73 3.0 NNW 24 35 13 19 1017.9 1017.5 0.0
25/07:30pm 21.1 17.1 16.1 73 3.0 NNW 32 43 17 23 1017.7 1017.3 0.0
25/07:00pm 21.5 18.9 16.9 75 2.8 NNW 26 37 14 20 1017.3 1016.9 0.0
25/06:30pm 21.7 20.8 17.7 78 2.5 N 19 28 10 15 1016.9 1016.5 0.0
25/06:00pm 21.7 19.1 16.9 74 2.9 N 26 43 14 23 1016.5 1016.1 0.0
25/05:30pm 22.2 19.8 16.5 70 3.5 N 24 41 13 22 1016.3 1015.9 0.0
25/05:09pm 22.5 19.2 16.1 67 3.9 N 28 46 15 25 1016.1 1015.7 0.0
25/05:00pm 22.6 19.8 16.4 68 3.8 N 26 50 14 27 1016.1 1015.7 0.0
25/04:40pm 23.0 19.0 16.3 66 4.1 N 32 50 17 27 1016.3 1015.9 0.0
25/04:30pm 23.2 19.1 16.0 64 4.4 N 32 48 17 26 1016.3 1015.9 0.0
25/04:06pm 23.6 20.1 16.4 64 4.4 N 30 48 16 26 1016.5 1016.1 0.0
25/04:00pm 23.6 18.7 16.4 64 4.4 N 37 48 20 26 1016.6 1016.2 0.0
25/03:30pm 24.2 19.1 15.9 59 5.1 N 37 44 20 24 1016.7 1016.3 0.0
25/03:00pm 24.6 19.6 16.1 59 5.2 N 37 44 20 24 1016.9 1016.5 0.0
25/02:30pm 24.9 20.3 16.1 58 5.4 N 35 41 19 22 1017.3 1016.9 0.0
25/02:00pm 25.0 20.0 15.0 53 6.0 N 35 41 19 22 1017.7 1017.3 0.0
25/01:30pm 25.6 23.8 15.9 55 5.9 N 20 35 11 19 1018.1 1017.7 0.0
25/01:00pm 24.7 21.9 15.3 56 5.7 N 24 33 13 18 1018.5 1018.1 0.0
25/12:30pm 25.5 22.6 15.2 53 6.2 N 24 32 13 17 1018.8 1018.4 0.0
25/12:00pm 25.7 23.2 15.1 52 6.4 N 22 30 12 16 1019.3 1018.9 0.0
25/11:30am 26.6 25.8 15.0 49 7.0 N 13 24 7 13 1019.9 1019.6 0.0
25/11:00am 26.6 26.1 15.0 49 7.0 N 11 17 6 9 1020.4 1020.1 0.0
25/10:30am 26.4 26.5 15.4 50 6.7 N 9 17 5 9 1020.7 1020.4 0.0
25/10:00am 25.8 24.9 14.9 51 6.6 N 13 20 7 11 1021.4 1021.1 0.0
25/09:30am 25.0 23.8 15.0 53 6.0 NNW 15 20 8 11 1021.7 1021.4 0.0
25/09:00am 24.0 22.4 15.0 57 5.4 NNW 17 22 9 12 1022.0 1021.7 0.0
25/08:30am 22.7 21.1 15.0 61 4.6 NNW 17 22 9 12 1022.1 1021.8 0.0
25/08:00am 21.9 19.7 14.5 63 4.3 NNW 19 26 10 14 1021.8 1021.5 0.0
25/07:30am 20.9 18.5 13.8 64 4.1 NNW 19 24 10 13 1021.7 1021.4 0.0
25/07:00am 20.3 17.7 13.7 66 3.8 NNW 20 26 11 14 1021.3 1021.0 0.0
25/06:30am 19.7 17.7 13.9 69 3.3 NW 17 22 9 12 1021.2 1020.9 0.0
25/06:00am 19.1 17.6 14.1 73 2.9 WNW 15 19 8 10 1021.1 1020.8 0.0
25/05:30am 19.0 17.1 14.3 74 2.7 WNW 17 19 9 10 1020.7 1020.4 0.0
25/05:00am 19.5 18.4 14.3 72 3.0 NNW 13 20 7 11 1020.2 1019.9 0.0
25/04:30am 19.5 19.0 13.9 70 3.2 N 9 17 5 9 1019.8 1019.5 0.0
25/04:00am 19.7 17.4 14.1 70 3.2 N 19 28 10 15 1019.4 1019.0 0.0
25/03:30am 19.6 16.6 13.8 69 3.3 N 22 33 12 18 1019.0 1018.6 0.0
25/03:00am 19.6 15.5 13.8 69 3.3 NNE 28 33 15 18 1018.9 1018.5 0.0
25/02:30am 19.6 17.0 13.8 69 3.3 NNE 20 30 11 16 1019.5 1019.2 0.0
25/02:00am 19.7 16.2 13.4 67 3.6 NNE 24 28 13 15 1019.7 1019.4 0.0
25/01:30am 19.4 16.8 13.1 67 3.6 NNE 19 26 10 14 1019.9 1019.6 0.0
25/01:00am 19.4 17.1 13.1 67 3.6 NNE 17 20 9 11 1020.3 1020.0 0.0
25/12:30am 19.3 17.8 13.0 67 3.6 NNE 13 19 7 10 1020.9 1020.6 0.0
25/12:00am 19.4 17.8 12.9 66 3.7 NE 13 19 7 10 1021.2 1020.9 0.0
 
Date/Time
EST
Temp
°C
App
Temp
°C
Dew
Point
Rel
Hum
%
Delta-T
°C
Wind Press
QNH
hPa
Press
MSL
hPa
Rain
since 9 am
mm
Dir
 
Spd
km/h
Gust
km/h
Spd
kts
Gust
kts
24/11:30pm 19.5 17.1 12.7 65 3.8 NNE 17 20 9 11 1021.5 1021.2 0.0
24/11:00pm 19.5 17.2 13.0 66 3.7 NE 17 24 9 13 1021.8 1021.5 0.0
24/10:30pm 19.6 17.2 12.8 65 3.8 NNE 17 24 9 13 1021.8 1021.5 0.0
24/10:00pm 19.7 17.3 12.7 64 3.9 NE 17 24 9 13 1022.1 1021.8 0.0
24/09:30pm 19.7 17.3 12.7 64 4.0 NE 17 22 9 12 1022.4 1022.1 0.0
24/09:00pm 19.8 17.3 12.3 62 4.2 NE 17 26 9 14 1022.6 1022.3 0.0
24/08:30pm 19.9 18.0 12.9 64 4.0 NNE 15 22 8 12 1022.5 1022.2 0.0
24/08:00pm 20.0 17.2 12.5 62 4.2 NE 19 24 10 13 1022.2 1021.9 0.0
24/07:30pm 20.1 17.3 12.6 62 4.2 NE 19 26 10 14 1021.8 1021.5 0.0
24/07:00pm 20.3 17.4 12.8 62 4.2 NE 20 28 11 15 1021.7 1021.4 0.0
24/06:30pm 20.3 17.4 12.3 60 4.5 NE 19 26 10 14 1021.4 1021.1 0.0
24/06:00pm 20.5 17.6 12.2 59 4.7 NE 19 30 10 16 1021.2 1020.9 0.0
24/05:30pm 21.3 18.4 12.2 56 5.1 NE 19 24 10 13 1021.1 1020.8 0.0
24/05:00pm 21.7 18.6 11.7 53 5.6 NE 19 28 10 15 1020.9 1020.6 0.0
24/04:30pm 22.0 19.0 12.0 53 5.6 ENE 19 22 10 12 1020.9 1020.6 0.0
24/04:00pm 22.6 19.7 12.3 52 5.8 ENE 19 24 10 13 1020.7 1020.4 0.0
24/03:30pm 22.9 20.2 12.8 53 5.8 ENE 19 26 10 14 1020.3 1020.0 0.0
24/03:00pm 23.3 20.6 12.9 52 6.0 E 19 24 10 13 1020.4 1020.1 0.0
24/02:30pm 23.9 21.3 13.2 51 6.2 E 19 24 10 13 1020.6 1020.3 0.0
24/02:00pm 23.8 21.2 13.1 51 6.2 E 19 24 10 13 1020.7 1020.4 0.0
24/01:30pm 23.6 21.9 13.5 53 5.9 E 15 24 8 13 1020.9 1020.6 0.0
24/01:00pm 24.2 22.7 13.1 50 6.4 E 13 17 7 9 1021.2 1020.9 0.0
24/12:30pm 24.6 23.3 13.8 51 6.4 E 13 17 7 9 1021.5 1021.2 0.0
24/12:00pm 25.0 23.4 13.9 50 6.5 E 15 19 8 10 1022.0 1021.7 0.0
24/11:30am 24.4 22.9 13.0 49 6.6 E 13 19 7 10 1022.2 1021.9 0.0
24/11:00am 25.0 23.6 13.5 48 6.7 E 13 17 7 9 1022.5 1022.2 0.0
24/10:30am 24.9 23.5 13.5 49 6.7 ESE 13 19 7 10 1022.6 1022.3 0.0
24/10:00am 24.5 23.1 13.4 50 6.5 E 13 17 7 9 1022.9 1022.6 0.0
24/09:30am 24.1 22.9 13.9 53 6.0 E 13 17 7 9 1023.2 1022.9 0.0
24/09:00am 23.1 21.9 12.7 52 6.0 E 11 15 6 8 1023.3 1023.0 0.0
24/08:30am 23.6 22.3 13.8 54 5.8 E 13 19 7 10 1023.1 1022.8 0.0
24/08:00am 23.3 21.9 13.5 54 5.7 E 13 17 7 9 1022.7 1022.4 0.0
24/07:30am 22.8 21.3 13.0 54 5.7 ENE 13 17 7 9 1022.3 1022.0 0.0
24/07:00am 22.6 21.2 13.4 56 5.3 ENE 13 17 7 9 1022.3 1022.0 0.0
24/06:30am 21.7 19.9 13.3 59 4.8 ENE 15 20 8 11 1021.9 1021.6 0.0
24/06:00am 19.8 19.6 13.7 68 3.5 E 7 9 4 5 1021.9 1021.6 0.0
24/05:30am 19.1 18.1 13.3 69 3.3 SW 11 13 6 7 1021.8 1021.5 0.0
24/05:00am 18.8 18.2 13.4 71 3.1 W 9 11 5 6 1021.1 1020.8 0.0
24/04:30am 18.5 18.4 13.4 72 2.9 W 6 9 3 5 1020.9 1020.6 0.0
24/04:00am 19.1 17.1 12.6 66 3.6 NNE 15 20 8 11 1020.5 1020.2 0.0
24/03:30am 19.2 17.4 13.2 68 3.4 N 15 20 8 11 1020.5 1020.2 0.0
24/03:00am 19.0 17.4 12.7 67 3.5 NNE 13 20 7 11 1020.4 1020.1 0.0
24/02:30am 19.2 17.3 12.9 67 3.6 NNE 15 19 8 10 1020.7 1020.4 0.0
24/02:00am 19.0 16.9 12.5 66 3.6 NNE 15 20 8 11 1020.8 1020.5 0.0
24/01:30am 19.0 17.0 12.7 67 3.5 NNE 15 19 8 10 1020.8 1020.5 0.0
24/01:00am 19.1 17.2 13.1 68 3.4 NNE 15 20 8 11 1021.0 1020.7 0.0
24/12:30am 19.0 17.1 13.0 68 3.4 NNE 15 20 8 11 1021.2 1020.9 0.0
24/12:00am 19.0 17.5 13.0 68 3.4 NNE 13 19 7 10 1021.4 1021.1 0.0
 
Date/Time
EST
Temp
°C
App
Temp
°C
Dew
Point
Rel
Hum
%
Delta-T
°C
Wind Press
QNH
hPa
Press
MSL
hPa
Rain
since 9 am
mm
Dir
 
Spd
km/h
Gust
km/h
Spd
kts
Gust
kts
23/11:30pm 19.0 16.2 12.5 66 3.6 NNE 19 24 10 13 1021.4 1021.1 0.0
23/11:00pm 19.1 17.1 12.6 66 3.6 NE 15 22 8 12 1021.6 1021.3 0.0
23/10:30pm 19.1 16.6 12.4 65 3.8 NNE 17 24 9 13 1021.7 1021.4 0.0
23/10:00pm 19.3 16.4 12.3 64 3.9 NNE 19 28 10 15 1021.6 1021.3 0.0
23/09:30pm 19.5 16.8 13.0 66 3.7 NE 19 28 10 15 1021.5 1021.2 0.0
23/09:00pm 19.5 17.1 12.7 65 3.8 NE 17 24 9 13 1021.5 1021.2 0.0
23/08:30pm 19.7 16.9 12.7 64 4.0 ENE 19 24 10 13 1021.2 1020.9 0.0
23/08:00pm 19.7 16.7 12.7 64 3.9 NE 20 28 11 15 1020.9 1020.6 0.0
23/07:30pm 19.6 16.8 12.6 64 3.9 NE 19 24 10 13 1020.4 1020.1 0.0
23/07:00pm 19.8 16.9 12.8 64 4.0 NE 20 28 11 15 1019.9 1019.6 0.0
23/06:30pm 19.8 16.7 12.3 62 4.2 NE 20 26 11 14 1019.8 1019.5 0.0
23/06:00pm 19.9 16.7 11.9 60 4.5 ENE 20 28 11 15 1019.4 1019.0 0.0
23/05:30pm 20.3 16.9 11.2 56 5.0 ENE 20 24 11 13 1019.2 1018.8 0.0
23/05:00pm 20.7 16.9 11.3 55 5.2 ENE 22 28 12 15 1018.9 1018.5 0.0
23/04:30pm 21.3 18.1 11.9 55 5.3 ENE 20 28 11 15 1018.8 1018.4 0.0
23/04:00pm 21.5 17.4 11.5 53 5.6 ENE 24 28 13 15 1018.6 1018.2 0.0
23/03:30pm 21.6 17.6 11.9 54 5.5 ENE 24 30 13 16 1018.5 1018.1 0.0
23/03:00pm 22.7 18.9 12.3 52 5.9 E 24 28 13 15 1018.6 1018.2 0.0
23/02:30pm 22.8 18.7 11.5 49 6.4 E 24 30 13 16 1018.7 1018.3 0.0
23/02:00pm 23.4 20.3 12.1 49 6.4 E 20 24 11 13 1019.0 1018.6 0.0
23/01:30pm 22.9 19.6 11.6 49 6.4 ESE 20 24 11 13 1019.5 1019.2 0.0
23/01:00pm 23.3 20.4 12.3 50 6.3 ESE 19 22 10 12 1019.8 1019.5 0.0
23/12:30pm 22.7 19.5 11.1 48 6.5 SE 19 24 10 13 1020.3 1020.0 0.0
23/12:00pm 23.2 19.8 11.3 47 6.7 SSE 20 24 11 13 1020.8 1020.5 0.0
23/11:30am 23.2 20.5 11.6 48 6.5 SE 17 22 9 12 1021.3 1021.0 0.0
23/11:00am 23.2 20.8 11.3 47 6.7 SE 15 19 8 10 1021.7 1021.4 0.0
23/10:30am 23.8 20.8 10.5 43 7.4 ESE 17 19 9 10 1022.1 1021.8 0.0
23/10:00am 24.2 21.6 11.9 46 7.0 ESE 17 20 9 11 1022.1 1021.8 0.0
23/09:30am 22.9 19.8 10.3 45 6.9 ESE 17 22 9 12 1022.2 1021.9 0.0
23/09:00am 22.2 19.1 10.4 47 6.5 ESE 17 20 9 11 1022.2 1021.9 0.0
23/08:30am 22.8 20.0 11.2 48 6.5 ESE 17 20 9 11 1022.4 1022.1 0.0
23/08:00am 21.9 18.7 10.1 47 6.4 ESE 17 22 9 12 1022.4 1022.1 0.0
23/07:30am 21.9 19.0 11.0 50 6.0 ESE 17 22 9 12 1022.2 1021.9 0.0
23/07:00am 21.3 17.9 11.1 52 5.6 ESE 20 26 11 14 1021.9 1021.6 0.0
23/06:30am 20.5 17.3 12.0 58 4.8 E 20 24 11 13 1021.7 1021.4 0.0
23/06:00am 19.3 16.3 12.1 63 4.0 SE 19 22 10 12 1021.7 1021.4 0.0
23/05:30am 19.1 16.5 11.9 63 4.0 SE 17 20 9 11 1021.6 1021.3 0.0
23/05:00am 18.3 15.1 11.1 63 3.9 SE 19 24 10 13 1021.5 1021.2 0.0
23/04:30am 18.4 15.0 10.7 61 4.2 SE 19 24 10 13 1021.3 1021.0 0.0
23/04:00am 18.3 15.2 10.4 60 4.2 ESE 17 22 9 12 1021.2 1020.9 0.0
23/03:30am 18.2 15.0 10.1 59 4.3 ESE 17 22 9 12 1021.0 1020.7 0.0
23/03:00am 18.4 14.0 10.5 60 4.2 ESE 24 28 13 15 1020.8 1020.5 0.0
23/02:30am 18.5 13.9 11.1 62 4.0 ESE 26 32 14 17 1020.8 1020.5 0.0
23/02:00am 18.5 13.8 10.6 60 4.3 ESE 26 33 14 18 1020.8 1020.5 0.0
23/01:30am 18.7 13.7 11.0 61 4.2 ESE 28 33 15 18 1021.2 1020.9 0.0
23/01:00am 18.8 14.0 11.6 63 4.0 ESE 28 33 15 18 1021.5 1021.2 0.0
23/12:30am 18.9 13.5 11.0 60 4.3 ESE 30 37 16 20 1021.9 1021.6 0.0
23/12:00am 18.8 13.9 11.4 62 4.1 ESE 28 33 15 18 1022.2 1021.9 0.0
 
Date/Time
EST
Temp
°C
App
Temp
°C
Dew
Point
Rel
Hum
%
Delta-T
°C
Wind Press
QNH
hPa
Press
MSL
hPa
Rain
since 9 am
mm
Dir
 
Spd
km/h
Gust
km/h
Spd
kts
Gust
kts
22/11:30pm 18.9 14.1 11.5 62 4.1 ESE 28 37 15 20 1022.4 1022.1 0.0
22/11:00pm 18.9 14.1 11.7 63 4.0 ESE 28 35 15 19 1022.6 1022.3 0.0
22/10:30pm 19.0 13.3 11.3 61 4.2 ESE 32 37 17 20 1022.7 1022.4 0.0
22/10:00pm 19.2 12.9 11.0 59 4.5 ESE 35 41 19 22 1022.8 1022.5 0.0
22/09:30pm 19.2 13.1 11.7 62 4.2 ESE 35 43 19 23 1022.8 1022.5 0.0
22/09:00pm 19.4 13.3 11.7 61 4.3 ESE 35 43 19 23 1022.9 1022.6 0.0
22/08:30pm 19.4 13.1 12.2 63 4.0 ESE 37 44 20 24 1022.9 1022.6 0.0

Other Formats:

Comma delimited format used in spreadsheet applications
http://www.bom.gov.au/fwo/IDQ60801/IDQ60801.94584.axf

JavaScript Object Notation format (JSON) in row-major order
http://www.bom.gov.au/fwo/IDQ60801/IDQ60801.94584.json